Time;durP1;ratioP1;P1;durP2;ratioP2;P2;SDS_P1;SDS_P2;PMS_P1;PMS_P2;Temp;Humidity;BMP_temperature;BMP_pressure;BME280_temperature;BME280_humidity;BME280_pressure;Samples;Min_cycle;Max_cycle;Signal;HPM_P1;HPM_P2
2022/11/29 00:01:35;;;;;;;31.67;15.87;;;;;;;;;;4932062;29;20047;-81
2022/11/29 00:04:01;;;;;;;33.25;16.55;;;;;;;;;;4936848;28;20035;-81
2022/11/29 00:06:29;;;;;;;30.13;16.05;;;;;;;;;;4934050;29;20039;-81
2022/11/29 00:08:56;;;;;;;35.40;15.43;;;;;;;;;;4920909;29;20051;-81
2022/11/29 00:14:11;;;;;;;31.25;15.77;;;;;;;;;;4933242;29;20570;-81
2022/11/29 00:16:39;;;;;;;34.55;16.40;;;;;;;;;;4917979;28;20042;-81
2022/11/29 00:19:05;;;;;;;28.33;15.45;;;;;;;;;;4931855;29;20042;-81
2022/11/29 00:21:30;;;;;;;35.60;16.50;;;;;;;;;;4935306;29;20495;-81
2022/11/29 00:23:56;;;;;;;31.33;16.00;;;;;;;;;;4931776;29;20538;-80
2022/11/29 00:26:21;;;;;;;32.80;16.35;;;;;;;;;;4920440;29;20031;-82
2022/11/29 00:28:47;;;;;;;29.77;15.35;;;;;;;;;;4916353;29;20040;-81
2022/11/29 00:31:24;;;;;;;29.50;15.38;;;;;;;;;;4916370;29;20032;-81
2022/11/29 00:33:50;;;;;;;32.75;15.38;;;;;;;;;;4921448;29;20040;-81
2022/11/29 00:36:16;;;;;;;32.80;15.57;;;;;;;;;;4918052;29;20036;-82
2022/11/29 00:38:41;;;;;;;28.65;15.05;;;;;;;;;;4921170;29;20091;-81
2022/11/29 00:41:08;;;;;;;32.95;16.05;;;;;;;;;;4916949;29;20996;-82
2022/11/29 00:43:33;;;;;;;31.08;16.33;;;;;;;;;;4919948;29;20043;-81
2022/11/29 00:46:01;;;;;;;27.70;15.40;;;;;;;;;;4918126;29;20050;-81
2022/11/29 00:48:27;;;;;;;32.15;16.13;;;;;;;;;;4915096;29;20514;-81
2022/11/29 00:50:52;;;;;;;29.80;14.95;;;;;;;;;;4932144;29;20032;-81
2022/11/29 00:53:17;;;;;;;28.05;14.60;;;;;;;;;;4934095;29;20046;-81
2022/11/29 00:55:48;;;;;;;28.90;14.57;;;;;;;;;;4934514;29;20028;-81
2022/11/29 00:58:13;;;;;;;26.05;13.65;;;;;;;;;;4916701;29;20407;-80
2022/11/29 01:00:39;;;;;;;32.20;16.52;;;;;;;;;;4920196;29;20047;-80
2022/11/29 01:03:04;;;;;;;30.27;15.68;;;;;;;;;;4928346;29;20055;-80
2022/11/29 01:05:31;;;;;;;30.55;15.30;;;;;;;;;;4930995;29;20044;-80
2022/11/29 01:07:56;;;;;;;28.63;16.00;;;;;;;;;;4918397;29;20084;-80
2022/11/29 01:10:22;;;;;;;31.75;15.85;;;;;;;;;;4916453;29;20176;-80
2022/11/29 01:12:48;;;;;;;27.75;15.05;;;;;;;;;;4917071;29;20543;-82
2022/11/29 01:15:13;;;;;;;30.25;15.18;;;;;;;;;;4901996;29;20094;-81
2022/11/29 01:17:39;;;;;;;30.60;15.43;;;;;;;;;;4921701;29;20031;-81
2022/11/29 01:20:06;;;;;;;34.53;15.80;;;;;;;;;;4932659;29;20059;-81
2022/11/29 01:22:33;;;;;;;33.65;14.93;;;;;;;;;;4935693;29;20128;-81
2022/11/29 01:24:58;;;;;;;35.45;16.50;;;;;;;;;;4916288;29;20036;-80
2022/11/29 01:27:24;;;;;;;29.40;14.88;;;;;;;;;;4930767;29;20043;-80
2022/11/29 01:29:49;;;;;;;27.65;14.82;;;;;;;;;;4933506;29;20102;-80
2022/11/29 01:32:15;;;;;;;29.25;15.93;;;;;;;;;;4930878;29;20043;-80
2022/11/29 01:34:40;;;;;;;30.38;14.65;;;;;;;;;;4918428;29;20040;-80
2022/11/29 01:37:05;;;;;;;29.73;15.32;;;;;;;;;;4914485;28;20063;-80
2022/11/29 01:39:31;;;;;;;30.17;15.60;;;;;;;;;;4931812;29;20039;-80
2022/11/29 01:41:56;;;;;;;30.15;15.93;;;;;;;;;;4915360;29;20039;-81
2022/11/29 01:44:22;;;;;;;32.33;15.18;;;;;;;;;;4915705;29;20431;-81
2022/11/29 01:46:48;;;;;;;32.33;15.30;;;;;;;;;;4932818;29;20043;-81
2022/11/29 01:49:21;;;;;;;29.73;14.85;;;;;;;;;;4935375;29;20451;-81
2022/11/29 01:52:08;;;;;;;31.27;14.75;;;;;;;;;;4929328;28;20042;-80
2022/11/29 01:54:37;;;;;;;30.55;15.00;;;;;;;;;;4933672;29;20048;-80
2022/11/29 01:57:05;;;;;;;31.58;15.57;;;;;;;;;;4916323;28;20043;-81
2022/11/29 01:59:31;;;;;;;29.45;14.82;;;;;;;;;;4918117;29;20539;-81
2022/11/29 02:02:02;;;;;;;27.65;14.27;;;;;;;;;;4916594;29;20063;-81
2022/11/29 02:04:31;;;;;;;29.83;14.82;;;;;;;;;;4902674;28;20443;-80
2022/11/29 02:06:56;;;;;;;28.95;15.27;;;;;;;;;;4929649;29;20042;-80
2022/11/29 02:09:22;;;;;;;30.40;15.55;;;;;;;;;;4920704;29;20039;-79
2022/11/29 02:11:59;;;;;;;30.10;15.75;;;;;;;;;;4914190;29;20128;-81
2022/11/29 02:14:28;;;;;;;29.30;15.45;;;;;;;;;;4931419;28;20056;-82
2022/11/29 02:17:08;;;;;;;30.58;15.02;;;;;;;;;;4931057;28;20131;-80
2022/11/29 02:19:55;;;;;;;30.88;15.30;;;;;;;;;;4931329;28;20222;-80
2022/11/29 02:22:33;;;;;;;28.48;15.60;;;;;;;;;;4932551;29;20035;-82
2022/11/29 02:25:22;;;;;;;26.63;14.60;;;;;;;;;;4932423;29;20039;-81
2022/11/29 02:28:06;;;;;;;33.08;14.57;;;;;;;;;;4928068;28;20127;-80
2022/11/29 02:31:02;;;;;;;32.03;16.08;;;;;;;;;;4932588;28;20040;-80
2022/11/29 02:34:06;;;;;;;29.42;15.15;;;;;;;;;;4933420;28;20039;-81
2022/11/29 02:36:49;;;;;;;27.98;14.85;;;;;;;;;;4930010;28;20045;-81
2022/11/29 02:39:38;;;;;;;27.90;14.38;;;;;;;;;;4947231;28;20028;-80
2022/11/29 02:42:25;;;;;;;28.15;15.23;;;;;;;;;;4930693;28;20035;-81
2022/11/29 02:44:53;;;;;;;28.77;15.15;;;;;;;;;;4947084;28;20142;-81
2022/11/29 02:47:59;;;;;;;31.38;16.00;;;;;;;;;;4928395;28;20063;-81
2022/11/29 02:51:06;;;;;;;30.50;14.68;;;;;;;;;;4926383;28;20043;-81
2022/11/29 02:53:57;;;;;;;32.67;15.63;;;;;;;;;;4892148;29;20047;-81
2022/11/29 02:56:36;;;;;;;30.30;14.73;;;;;;;;;;4907187;29;20044;-81
2022/11/29 02:59:13;;;;;;;31.48;15.82;;;;;;;;;;4906355;29;20044;-81
2022/11/29 03:01:51;;;;;;;31.25;15.07;;;;;;;;;;4879243;29;20119;-81
2022/11/29 03:04:53;;;;;;;31.13;15.57;;;;;;;;;;4916177;29;20040;-81
2022/11/29 03:07:27;;;;;;;29.20;15.52;;;;;;;;;;4914887;29;20039;-81
2022/11/29 03:10:31;;;;;;;30.42;15.85;;;;;;;;;;4898745;29;20126;-80
2022/11/29 03:12:56;;;;;;;31.98;15.75;;;;;;;;;;4907030;29;20063;-81
2022/11/29 03:15:30;;;;;;;30.45;15.90;;;;;;;;;;4881341;29;20439;-80
2022/11/29 03:17:59;;;;;;;31.27;16.45;;;;;;;;;;4908071;29;20539;-80
2022/11/29 03:20:38;;;;;;;32.42;15.85;;;;;;;;;;4915152;29;20536;-80
2022/11/29 03:23:03;;;;;;;34.00;17.23;;;;;;;;;;4896949;29;20481;-80
2022/11/29 03:25:53;;;;;;;32.50;16.60;;;;;;;;;;4912971;29;20044;-80
2022/11/29 03:28:33;;;;;;;31.13;16.08;;;;;;;;;;4899777;29;20043;-82
2022/11/29 03:31:12;;;;;;;33.40;16.95;;;;;;;;;;4894926;29;20587;-82
2022/11/29 03:33:45;;;;;;;35.17;16.15;;;;;;;;;;4915315;28;20069;-82
2022/11/29 03:36:28;;;;;;;32.67;16.70;;;;;;;;;;4933367;29;20110;-81
2022/11/29 03:38:57;;;;;;;32.75;16.77;;;;;;;;;;4917119;28;20554;-79
2022/11/29 03:41:39;;;;;;;32.22;17.08;;;;;;;;;;4931969;29;20031;-80
2022/11/29 03:44:13;;;;;;;33.58;16.25;;;;;;;;;;4915472;29;20036;-81
2022/11/29 03:46:47;;;;;;;32.53;16.13;;;;;;;;;;4918800;29;20123;-81
2022/11/29 03:49:19;;;;;;;29.67;16.48;;;;;;;;;;4917771;29;20070;-81
2022/11/29 03:52:05;;;;;;;34.35;17.40;;;;;;;;;;4926102;28;20038;-80
2022/11/29 03:55:08;;;;;;;31.30;16.50;;;;;;;;;;4933703;28;20550;-83
2022/11/29 03:58:04;;;;;;;35.58;17.13;;;;;;;;;;4932532;28;20070;-84
2022/11/29 04:00:42;;;;;;;32.63;16.77;;;;;;;;;;4943506;28;20126;-83
2022/11/29 04:03:33;;;;;;;31.02;15.88;;;;;;;;;;4916518;29;20452;-84
2022/11/29 04:06:17;;;;;;;35.45;17.33;;;;;;;;;;4932932;28;20065;-84
2022/11/29 04:09:03;;;;;;;33.75;16.52;;;;;;;;;;4930523;28;20039;-83
2022/11/29 04:12:08;;;;;;;32.72;17.23;;;;;;;;;;4929622;29;20187;-83
2022/11/29 04:14:52;;;;;;;33.40;16.80;;;;;;;;;;4929041;29;20507;-83
2022/11/29 04:17:49;;;;;;;33.40;16.10;;;;;;;;;;4930681;28;20127;-85
2022/11/29 04:20:23;;;;;;;34.95;16.55;;;;;;;;;;4910744;28;20481;-85
2022/11/29 04:22:52;;;;;;;33.58;16.98;;;;;;;;;;4933085;28;20098;-84
2022/11/29 04:26:12;;;;;;;31.55;15.90;;;;;;;;;;4930075;29;20399;-85
2022/11/29 04:28:37;;;;;;;32.45;15.75;;;;;;;;;;4900330;29;20047;-84
2022/11/29 04:31:33;;;;;;;35.40;17.33;;;;;;;;;;4928353;28;20035;-84
2022/11/29 04:34:02;;;;;;;32.50;16.97;;;;;;;;;;4929839;28;20450;-84
2022/11/29 04:36:31;;;;;;;36.03;17.90;;;;;;;;;;4929679;29;20320;-84
2022/11/29 04:39:18;;;;;;;32.83;17.13;;;;;;;;;;4915466;29;20109;-84
2022/11/29 04:42:02;;;;;;;;;;;;;;;;;;4932592;29;20036;-84
2022/11/29 04:44:54;;;;;;;35.97;16.35;;;;;;;;;;4936907;28;19958;-84
2022/11/29 04:47:31;;;;;;;33.08;16.85;;;;;;;;;;4930117;28;20036;-84
2022/11/29 04:50:08;;;;;;;29.98;15.15;;;;;;;;;;4935537;29;20068;-84
2022/11/29 04:52:38;;;;;;;35.53;17.05;;;;;;;;;;4931176;29;20062;-84
2022/11/29 04:55:41;;;;;;;31.77;16.77;;;;;;;;;;4922117;28;20082;-83
2022/11/29 04:58:23;;;;;;;35.03;16.58;;;;;;;;;;4930734;28;20046;-83
2022/11/29 05:01:11;;;;;;;31.70;16.77;;;;;;;;;;4928870;28;20032;-84
2022/11/29 05:04:04;;;;;;;36.78;17.67;;;;;;;;;;4932084;28;20036;-81
2022/11/29 05:06:41;;;;;;;34.20;16.83;;;;;;;;;;4913378;28;20070;-81
2022/11/29 05:09:29;;;;;;;35.17;18.10;;;;;;;;;;4931506;28;20043;-80
2022/11/29 05:12:17;;;;;;;33.13;16.58;;;;;;;;;;4930509;28;20050;-81
2022/11/29 05:15:27;;;;;;;32.45;16.52;;;;;;;;;;4920233;29;20047;-82
2022/11/29 05:18:04;;;;;;;33.53;16.60;;;;;;;;;;4931208;28;20578;-82
2022/11/29 05:20:48;;;;;;;;;;;;;;;;;;4931109;28;20523;-81
2022/11/29 05:23:32;;;;;;;43.60;20.08;;;;;;;;;;4947406;28;20290;-82
2022/11/29 05:26:27;;;;;;;32.53;17.00;;;;;;;;;;4932904;29;20123;-80
2022/11/29 05:29:05;;;;;;;35.13;16.95;;;;;;;;;;4915777;28;20046;-80
2022/11/29 05:31:33;;;;;;;33.33;16.13;;;;;;;;;;4926007;29;20652;-80
2022/11/29 05:34:20;;;;;;;32.58;16.48;;;;;;;;;;4929938;28;20064;-80
2022/11/29 05:37:06;;;;;;;35.65;17.40;;;;;;;;;;4930725;28;20050;-82
2022/11/29 05:39:40;;;;;;;34.35;16.52;;;;;;;;;;4929692;28;20147;-83
2022/11/29 05:42:23;;;;;;;31.42;17.38;;;;;;;;;;4928872;29;20496;-83
2022/11/29 05:45:42;;;;;;;34.67;16.60;;;;;;;;;;4932512;28;20048;-85
2022/11/29 05:48:33;;;;;;;33.22;16.65;;;;;;;;;;4905987;29;20064;-83
2022/11/29 05:51:10;;;;;;;35.40;17.17;;;;;;;;;;4906077;28;20039;-81
2022/11/29 05:53:43;;;;;;;31.92;16.83;;;;;;;;;;4928950;29;20448;-83
2022/11/29 05:56:28;;;;;;;34.63;17.02;;;;;;;;;;4931475;29;20032;-83
2022/11/29 05:59:02;;;;;;;37.58;19.08;;;;;;;;;;4917401;29;20058;-81
2022/11/29 06:01:39;;;;;;;33.55;17.10;;;;;;;;;;4932725;29;20039;-81
2022/11/29 06:04:22;;;;;;;34.15;17.80;;;;;;;;;;4919251;28;20046;-82
2022/11/29 06:07:07;;;;;;;34.45;16.90;;;;;;;;;;4932092;28;20057;-82
2022/11/29 06:09:39;;;;;;;30.67;16.08;;;;;;;;;;4918098;28;20062;-82
2022/11/29 06:12:18;;;;;;;35.70;17.15;;;;;;;;;;4933117;29;20031;-82
2022/11/29 06:15:22;;;;;;;32.45;15.82;;;;;;;;;;4916752;29;20036;-82
2022/11/29 06:18:05;;;;;;;33.75;17.05;;;;;;;;;;4945583;28;20043;-82
2022/11/29 06:21:28;;;;;;;32.17;16.67;;;;;;;;;;4930164;28;20427;-82
2022/11/29 06:24:14;;;;;;;35.63;16.92;;;;;;;;;;4935468;29;20043;-82
2022/11/29 06:27:18;;;;;;;35.70;18.15;;;;;;;;;;4933508;28;20631;-82
2022/11/29 06:30:19;;;;;;;34.53;15.93;;;;;;;;;;4860102;29;20421;-82
2022/11/29 06:32:54;;;;;;;33.03;17.38;;;;;;;;;;4862513;29;20112;-81
2022/11/29 06:35:26;;;;;;;35.38;17.02;;;;;;;;;;4912471;28;20512;-82
2022/11/29 06:37:54;;;;;;;35.67;17.80;;;;;;;;;;4933103;28;20039;-82
2022/11/29 06:40:19;;;;;;;30.20;16.75;;;;;;;;;;4914342;29;20031;-83
2022/11/29 06:42:45;;;;;;;34.70;17.65;;;;;;;;;;4931694;29;20046;-82
2022/11/29 06:45:12;;;;;;;32.33;17.35;;;;;;;;;;4930367;28;20055;-82
2022/11/29 06:47:45;;;;;;;32.70;16.48;;;;;;;;;;4928313;29;20043;-83
2022/11/29 06:50:13;;;;;;;35.03;17.58;;;;;;;;;;4929413;29;20046;-82
2022/11/29 06:52:57;;;;;;;32.63;16.75;;;;;;;;;;4931987;29;20491;-82
2022/11/29 06:55:34;;;;;;;35.17;17.70;;;;;;;;;;4931417;29;20051;-82
2022/11/29 06:58:25;;;;;;;32.17;16.80;;;;;;;;;;4914085;29;20158;-82
2022/11/29 07:00:53;;;;;;;33.97;17.42;;;;;;;;;;4915506;29;20531;-82
2022/11/29 07:03:18;;;;;;;33.95;17.38;;;;;;;;;;4928257;28;20388;-83
2022/11/29 07:05:45;;;;;;;31.95;16.85;;;;;;;;;;4933143;28;20032;-82
2022/11/29 07:08:20;;;;;;;36.25;17.50;;;;;;;;;;4917137;29;20491;-82
2022/11/29 07:10:48;;;;;;;34.85;17.27;;;;;;;;;;4917097;29;20067;-82
2022/11/29 07:13:15;;;;;;;31.90;15.45;;;;;;;;;;4921465;29;20046;-82
2022/11/29 07:15:49;;;;;;;32.13;16.83;;;;;;;;;;4911969;29;20043;-82
2022/11/29 07:18:39;;;;;;;30.70;15.73;;;;;;;;;;4914516;29;20396;-82
2022/11/29 07:21:14;;;;;;;33.83;16.50;;;;;;;;;;4930389;29;20063;-82
2022/11/29 07:23:52;;;;;;;34.80;17.02;;;;;;;;;;4914059;29;20413;-82
2022/11/29 07:26:25;;;;;;;34.03;16.95;;;;;;;;;;4929827;28;20035;-82
2022/11/29 07:29:05;;;;;;;33.00;16.77;;;;;;;;;;4916159;28;20027;-82
2022/11/29 07:31:46;;;;;;;34.03;16.92;;;;;;;;;;4929284;29;20062;-82
2022/11/29 07:34:31;;;;;;;33.17;16.10;;;;;;;;;;4901062;29;20075;-82
2022/11/29 07:37:03;;;;;;;31.27;16.30;;;;;;;;;;4931615;28;20810;-82
2022/11/29 07:39:29;;;;;;;34.95;17.33;;;;;;;;;;4916261;29;20088;-82
2022/11/29 07:42:03;;;;;;;30.70;16.60;;;;;;;;;;4931005;29;20063;-82
2022/11/29 07:44:37;;;;;;;32.33;17.02;;;;;;;;;;4934196;28;20487;-80
2022/11/29 07:47:02;;;;;;;33.58;17.23;;;;;;;;;;4928935;29;20059;-82
2022/11/29 07:49:28;;;;;;;32.60;16.80;;;;;;;;;;4911190;28;20035;-82
2022/11/29 07:51:54;;;;;;;32.33;16.30;;;;;;;;;;4912618;29;20035;-82
2022/11/29 07:54:20;;;;;;;34.47;15.52;;;;;;;;;;4929071;29;20139;-82
2022/11/29 07:56:45;;;;;;;33.05;17.05;;;;;;;;;;4913955;29;20114;-82
2022/11/29 07:59:11;;;;;;;30.92;16.88;;;;;;;;;;4915048;29;20043;-82
2022/11/29 08:01:38;;;;;;;31.60;16.40;;;;;;;;;;4929272;28;20126;-82
2022/11/29 08:04:04;;;;;;;32.70;15.20;;;;;;;;;;4916477;29;20091;-83
2022/11/29 08:06:29;;;;;;;29.77;15.20;;;;;;;;;;4929284;29;20035;-82
2022/11/29 08:09:01;;;;;;;29.02;15.50;;;;;;;;;;4917970;29;20042;-82
2022/11/29 08:11:27;;;;;;;33.13;16.25;;;;;;;;;;4926286;28;20514;-82
2022/11/29 08:14:00;;;;;;;35.22;17.05;;;;;;;;;;4933252;29;20037;-82
2022/11/29 08:16:26;;;;;;;30.55;15.95;;;;;;;;;;4934584;29;20051;-82
2022/11/29 08:18:51;;;;;;;29.92;15.55;;;;;;;;;;4934109;28;20039;-83
2022/11/29 08:21:17;;;;;;;30.02;14.82;;;;;;;;;;4920615;29;20103;-82
2022/11/29 08:23:48;;;;;;;30.50;15.88;;;;;;;;;;4920409;29;20031;-81
2022/11/29 08:26:15;;;;;;;30.10;15.93;;;;;;;;;;4916664;29;20897;-83
2022/11/29 08:28:40;;;;;;;31.55;15.80;;;;;;;;;;4918062;29;20035;-82
2022/11/29 08:31:08;;;;;;;31.70;16.02;;;;;;;;;;4905747;29;20049;-83
2022/11/29 08:33:42;;;;;;;28.70;15.50;;;;;;;;;;4904785;29;20465;-84
2022/11/29 08:36:14;;;;;;;29.05;15.52;;;;;;;;;;4928709;28;20086;-83
2022/11/29 08:38:46;;;;;;;28.63;15.15;;;;;;;;;;4910554;29;20111;-82
2022/11/29 08:41:13;;;;;;;32.25;15.70;;;;;;;;;;4918806;29;20449;-83
2022/11/29 08:43:39;;;;;;;29.67;15.98;;;;;;;;;;4922280;28;20107;-82
2022/11/29 08:46:05;;;;;;;32.22;15.77;;;;;;;;;;4862157;29;20048;-82
2022/11/29 08:48:31;;;;;;;30.92;16.58;;;;;;;;;;4912887;28;20049;-83
2022/11/29 08:50:57;;;;;;;32.42;16.45;;;;;;;;;;4896514;29;20597;-83
2022/11/29 08:53:41;;;;;;;30.40;16.58;;;;;;;;;;4936724;28;20043;-83
2022/11/29 08:56:08;;;;;;;34.33;16.80;;;;;;;;;;4920109;29;20527;-83
2022/11/29 08:58:34;;;;;;;30.02;15.93;;;;;;;;;;4919525;28;20042;-83
2022/11/29 09:00:59;;;;;;;32.97;16.38;;;;;;;;;;4934329;29;20798;-83
2022/11/29 09:06:12;;;;;;;33.85;16.25;;;;;;;;;;4931753;29;20043;-82
2022/11/29 09:08:37;;;;;;;32.85;17.05;;;;;;;;;;4935349;29;20036;-83
2022/11/29 09:11:07;;;;;;;30.70;15.55;;;;;;;;;;4936119;29;20836;-82
2022/11/29 09:13:35;;;;;;;30.02;15.20;;;;;;;;;;4934571;29;20602;-83
2022/11/29 09:16:06;;;;;;;32.05;16.00;;;;;;;;;;4915710;29;20744;-83
2022/11/29 09:18:31;;;;;;;32.42;17.25;;;;;;;;;;4905549;29;20396;-83
2022/11/29 09:20:58;;;;;;;32.95;17.33;;;;;;;;;;4914512;29;20032;-83
2022/11/29 09:23:24;;;;;;;30.85;16.15;;;;;;;;;;4919079;28;20031;-83
2022/11/29 09:25:49;;;;;;;36.05;17.10;;;;;;;;;;4932498;28;20414;-82
2022/11/29 09:28:15;;;;;;;31.38;16.88;;;;;;;;;;4915534;29;20046;-84
2022/11/29 09:30:40;;;;;;;32.58;16.50;;;;;;;;;;4914152;29;20044;-82
2022/11/29 09:33:06;;;;;;;32.63;17.08;;;;;;;;;;4932989;29;20050;-82
2022/11/29 09:35:32;;;;;;;30.48;15.93;;;;;;;;;;4911422;29;20476;-83
2022/11/29 09:37:58;;;;;;;35.90;17.00;;;;;;;;;;4918019;29;20518;-82
2022/11/29 09:40:31;;;;;;;29.65;15.35;;;;;;;;;;4931831;28;20043;-83
2022/11/29 09:43:13;;;;;;;31.05;15.82;;;;;;;;;;4917841;28;20044;-82
2022/11/29 09:45:41;;;;;;;34.25;16.10;;;;;;;;;;4931681;29;20118;-82
2022/11/29 09:48:27;;;;;;;33.88;16.98;;;;;;;;;;4915425;29;20071;-82
2022/11/29 09:51:03;;;;;;;30.27;15.52;;;;;;;;;;4936891;28;20058;-82
2022/11/29 09:53:42;;;;;;;30.85;16.35;;;;;;;;;;4929231;29;20043;-82
2022/11/29 09:56:26;;;;;;;32.10;15.60;;;;;;;;;;4931052;29;20487;-82
2022/11/29 09:58:59;;;;;;;31.55;16.65;;;;;;;;;;4933715;28;20046;-82
2022/11/29 10:01:28;;;;;;;30.65;15.73;;;;;;;;;;4929083;29;20118;-83
2022/11/29 10:03:59;;;;;;;29.10;16.50;;;;;;;;;;4927104;28;20408;-82
2022/11/29 10:06:40;;;;;;;33.33;16.95;;;;;;;;;;4912471;29;20915;-82
2022/11/29 10:09:19;;;;;;;30.25;15.50;;;;;;;;;;4906324;29;20492;-82
2022/11/29 10:11:56;;;;;;;33.60;16.70;;;;;;;;;;4928282;28;20046;-82
2022/11/29 10:14:26;;;;;;;30.30;15.60;;;;;;;;;;4930502;29;20471;-83
2022/11/29 10:17:32;;;;;;;27.17;15.43;;;;;;;;;;4932397;29;20031;-82
2022/11/29 10:20:12;;;;;;;33.67;16.33;;;;;;;;;;4916505;29;20039;-82
2022/11/29 10:22:42;;;;;;;32.75;16.02;;;;;;;;;;4925122;29;20504;-82
2022/11/29 10:25:15;;;;;;;27.58;14.93;;;;;;;;;;4948629;28;20044;-82
2022/11/29 10:27:41;;;;;;;30.65;16.88;;;;;;;;;;4929823;29;20443;-83
2022/11/29 10:30:13;;;;;;;29.38;14.95;;;;;;;;;;4932302;28;20039;-82
2022/11/29 10:32:39;;;;;;;32.47;16.23;;;;;;;;;;4915450;29;20529;-82
2022/11/29 10:35:12;;;;;;;32.38;16.83;;;;;;;;;;4917011;29;20044;-83
2022/11/29 10:37:37;;;;;;;31.13;15.88;;;;;;;;;;4928359;29;20035;-82
2022/11/29 10:40:06;;;;;;;30.52;15.95;;;;;;;;;;4918494;29;20494;-82
2022/11/29 10:42:47;;;;;;;31.27;15.55;;;;;;;;;;4932292;29;20538;-83
2022/11/29 10:45:24;;;;;;;30.00;15.65;;;;;;;;;;4919243;29;20064;-82
2022/11/29 10:47:52;;;;;;;29.42;15.48;;;;;;;;;;4933559;29;20095;-82
2022/11/29 10:50:31;;;;;;;34.20;16.35;;;;;;;;;;4903043;29;20047;-83
2022/11/29 10:53:09;;;;;;;29.13;15.00;;;;;;;;;;4914625;29;20408;-83
2022/11/29 10:55:59;;;;;;;31.83;15.23;;;;;;;;;;4934502;28;20518;-82
2022/11/29 10:58:28;;;;;;;28.15;15.13;;;;;;;;;;4910174;28;20040;-82
2022/11/29 11:01:00;;;;;;;29.40;15.77;;;;;;;;;;4930026;29;20039;-82
2022/11/29 11:03:30;;;;;;;31.50;15.32;;;;;;;;;;4914999;28;20172;-81
2022/11/29 11:05:58;;;;;;;26.98;14.73;;;;;;;;;;4910264;29;20527;-82
2022/11/29 11:08:25;;;;;;;28.98;14.85;;;;;;;;;;4915692;29;20078;-82
2022/11/29 11:10:52;;;;;;;30.40;15.97;;;;;;;;;;4923264;28;20411;-82
2022/11/29 11:13:21;;;;;;;30.65;15.23;;;;;;;;;;4930922;28;20035;-83
2022/11/29 11:15:47;;;;;;;29.55;15.85;;;;;;;;;;4916257;29;20098;-82
2022/11/29 11:18:25;;;;;;;28.50;15.35;;;;;;;;;;4916195;29;20035;-82
2022/11/29 11:20:52;;;;;;;31.10;15.02;;;;;;;;;;4940521;28;20083;-82
2022/11/29 11:23:30;;;;;;;30.55;14.48;;;;;;;;;;4932137;28;20094;-81
2022/11/29 11:26:09;;;;;;;30.20;15.15;;;;;;;;;;4901382;29;20094;-84
2022/11/29 11:28:59;;;;;;;29.92;14.32;;;;;;;;;;4933162;28;20055;-83
2022/11/29 11:31:33;;;;;;;26.95;14.55;;;;;;;;;;4903042;29;20031;-84
2022/11/29 11:34:25;;;;;;;27.08;14.98;;;;;;;;;;4931587;28;20044;-83
2022/11/29 11:37:14;;;;;;;28.23;14.63;;;;;;;;;;4944367;28;20036;-83
2022/11/29 11:39:45;;;;;;;28.88;14.80;;;;;;;;;;4914352;29;20103;-82
2022/11/29 11:44:56;;;;;;;31.20;14.73;;;;;;;;;;4931690;29;20448;-83
2022/11/29 11:47:26;;;;;;;32.90;16.60;;;;;;;;;;4917277;29;20146;-83
2022/11/29 11:50:03;;;;;;;29.70;14.98;;;;;;;;;;4931865;28;20495;-83
2022/11/29 11:52:38;;;;;;;27.25;14.32;;;;;;;;;;4934668;28;20047;-83
2022/11/29 11:55:22;;;;;;;27.38;14.90;;;;;;;;;;4936498;28;20970;-83
2022/11/29 11:58:11;;;;;;;28.17;14.73;;;;;;;;;;4932445;28;20492;-83
2022/11/29 12:00:39;;;;;;;29.02;15.05;;;;;;;;;;4934496;28;20050;-83
2022/11/29 12:03:16;;;;;;;28.40;15.50;;;;;;;;;;4914099;29;20165;-82
2022/11/29 12:05:47;;;;;;;33.30;16.63;;;;;;;;;;4917582;29;20530;-83
2022/11/29 12:08:13;;;;;;;31.85;15.68;;;;;;;;;;4914118;29;20105;-82
2022/11/29 12:10:39;;;;;;;29.70;15.38;;;;;;;;;;4932132;29;20526;-82
2022/11/29 12:13:04;;;;;;;31.17;16.15;;;;;;;;;;4920870;29;20036;-83
2022/11/29 12:15:37;;;;;;;29.33;15.15;;;;;;;;;;4919868;28;20048;-83
2022/11/29 12:18:12;;;;;;;28.23;15.35;;;;;;;;;;4920612;28;20062;-82
2022/11/29 12:20:43;;;;;;;29.55;15.52;;;;;;;;;;4907738;28;20126;-84
2022/11/29 12:23:11;;;;;;;29.42;14.60;;;;;;;;;;4935389;28;20035;-83
2022/11/29 12:25:46;;;;;;;27.27;14.85;;;;;;;;;;4931291;28;20070;-83
2022/11/29 12:28:13;;;;;;;32.63;15.45;;;;;;;;;;4950881;28;20043;-83
2022/11/29 12:31:02;;;;;;;30.92;15.25;;;;;;;;;;4921977;29;20454;-81
2022/11/29 12:33:42;;;;;;;27.00;14.40;;;;;;;;;;4883210;29;20044;-81
2022/11/29 12:36:27;;;;;;;31.48;16.10;;;;;;;;;;4884449;29;20128;-83
2022/11/29 12:39:05;;;;;;;30.85;14.38;;;;;;;;;;4880389;29;20417;-82
2022/11/29 12:41:42;;;;;;;29.85;16.42;;;;;;;;;;4892622;29;20045;-81
2022/11/29 12:44:26;;;;;;;27.27;14.73;;;;;;;;;;4896884;29;20049;-84
2022/11/29 12:47:18;;;;;;;29.00;14.90;;;;;;;;;;4881985;29;20131;-84
2022/11/29 12:49:46;;;;;;;30.25;15.98;;;;;;;;;;4855046;29;20039;-83
2022/11/29 12:52:23;;;;;;;33.75;15.68;;;;;;;;;;4879916;29;20037;-83
2022/11/29 12:55:13;;;;;;;32.05;16.55;;;;;;;;;;4893742;29;20132;-82
2022/11/29 12:57:47;;;;;;;31.45;16.30;;;;;;;;;;4880028;29;20052;-84
2022/11/29 13:00:15;;;;;;;32.30;16.65;;;;;;;;;;4864835;29;20144;-84
2022/11/29 13:02:40;;;;;;;;;;;;;;;;;;4897722;29;20044;-81
2022/11/29 13:05:24;;;;;;;29.75;14.98;;;;;;;;;;4897049;29;19919;-81
2022/11/29 13:08:14;;;;;;;28.38;14.27;;;;;;;;;;4879861;29;20103;-84
2022/11/29 13:11:01;;;;;;;30.60;15.10;;;;;;;;;;4891584;29;20091;-81
2022/11/29 13:13:45;;;;;;;28.48;15.10;;;;;;;;;;4912448;29;20047;-82
2022/11/29 13:16:34;;;;;;;31.23;15.63;;;;;;;;;;4898987;29;20444;-82
2022/11/29 13:19:05;;;;;;;29.42;14.63;;;;;;;;;;4905647;29;20040;-82
2022/11/29 13:21:59;;;;;;;32.15;15.63;;;;;;;;;;4914144;29;20387;-82
2022/11/29 13:24:31;;;;;;;30.67;15.75;;;;;;;;;;4890224;29;20050;-83
2022/11/29 13:26:57;;;;;;;31.30;16.05;;;;;;;;;;4895853;29;20400;-83
2022/11/29 13:29:23;;;;;;;36.05;16.65;;;;;;;;;;4900533;29;20036;-84
2022/11/29 13:31:49;;;;;;;31.77;16.65;;;;;;;;;;4887368;29;20474;-84
2022/11/29 13:34:21;;;;;;;31.58;15.35;;;;;;;;;;4894792;29;20108;-86
2022/11/29 13:36:49;;;;;;;29.30;15.05;;;;;;;;;;4912460;29;20734;-86
2022/11/29 13:39:31;;;;;;;32.72;16.75;;;;;;;;;;4916015;29;20516;-86
2022/11/29 13:42:05;;;;;;;32.75;15.82;;;;;;;;;;4893740;29;20040;-85
2022/11/29 13:44:56;;;;;;;30.90;15.98;;;;;;;;;;4916995;29;20043;-83
2022/11/29 13:47:21;;;;;;;31.67;15.50;;;;;;;;;;4888891;29;20391;-82
2022/11/29 13:50:01;;;;;;;30.98;16.20;;;;;;;;;;4901892;29;20035;-84
2022/11/29 13:52:34;;;;;;;31.63;16.92;;;;;;;;;;4924397;28;20059;-84
2022/11/29 13:55:14;;;;;;;32.70;16.65;;;;;;;;;;4889530;29;20044;-83
2022/11/29 13:57:52;;;;;;;31.92;16.48;;;;;;;;;;4930543;29;20123;-83
2022/11/29 14:00:28;;;;;;;32.15;15.68;;;;;;;;;;4913414;29;20043;-81
2022/11/29 14:02:54;;;;;;;34.35;18.05;;;;;;;;;;4885198;29;20492;-80
2022/11/29 14:05:25;;;;;;;36.88;17.38;;;;;;;;;;4913839;29;20050;-81
2022/11/29 14:08:22;;;;;;;31.65;16.58;;;;;;;;;;4903561;29;20051;-83
2022/11/29 14:10:48;;;;;;;;;;;;;;;;;;4888185;29;20491;-82
2022/11/29 14:13:14;;;;;;;31.85;16.40;;;;;;;;;;4919700;29;19925;-84
2022/11/29 14:15:40;;;;;;;36.38;17.98;;;;;;;;;;4900623;29;20044;-83
2022/11/29 14:18:45;;;;;;;36.75;17.20;;;;;;;;;;4916176;29;20052;-83
2022/11/29 14:21:11;;;;;;;34.92;17.45;;;;;;;;;;4915542;29;20038;-85
2022/11/29 14:23:39;;;;;;;36.15;17.98;;;;;;;;;;4915425;28;20035;-83
2022/11/29 14:26:04;;;;;;;38.08;19.48;;;;;;;;;;4930406;28;20042;-83
2022/11/29 14:28:33;;;;;;;34.53;18.27;;;;;;;;;;4915151;29;20044;-83
2022/11/29 14:31:00;;;;;;;37.25;18.52;;;;;;;;;;4898037;29;20040;-85
2022/11/29 14:33:54;;;;;;;38.47;20.30;;;;;;;;;;4914857;29;20599;-83
2022/11/29 14:36:27;;;;;;;38.47;18.98;;;;;;;;;;4887958;29;20078;-85
2022/11/29 14:38:58;;;;;;;38.45;19.80;;;;;;;;;;4898335;29;20098;-84
2022/11/29 14:42:05;;;;;;;38.97;18.35;;;;;;;;;;4934696;29;20440;-83
2022/11/29 14:44:31;;;;;;;;;;;;;;;;;;4915331;29;20039;-82
2022/11/29 14:47:12;;;;;;;36.85;17.83;;;;;;;;;;4925710;28;19966;-83
2022/11/29 14:49:43;;;;;;;41.22;19.70;;;;;;;;;;4927869;29;20091;-83
2022/11/29 14:52:11;;;;;;;43.33;19.65;;;;;;;;;;4913655;29;20032;-84
2022/11/29 14:54:52;;;;;;;41.80;20.58;;;;;;;;;;4935757;28;20055;-84
2022/11/29 14:57:48;;;;;;;42.30;19.60;;;;;;;;;;4912311;28;20048;-83
2022/11/29 15:00:14;;;;;;;38.45;18.77;;;;;;;;;;4928488;29;20043;-83
2022/11/29 15:02:47;;;;;;;39.85;19.40;;;;;;;;;;4901852;29;20701;-83
2022/11/29 15:05:16;;;;;;;40.70;19.85;;;;;;;;;;4911553;29;20039;-85
2022/11/29 15:08:09;;;;;;;41.35;19.27;;;;;;;;;;4934379;28;20040;-84
2022/11/29 15:10:40;;;;;;;37.78;19.52;;;;;;;;;;4870171;29;20043;-83
2022/11/29 15:13:10;;;;;;;35.95;19.10;;;;;;;;;;4852602;29;20036;-83
2022/11/29 15:16:09;;;;;;;37.92;18.83;;;;;;;;;;4862698;29;20052;-84